createdAt,value
2018-10-17T00:02:27.452Z,15.65
2018-10-17T00:05:51.996Z,15.60
2018-10-17T00:08:20.332Z,15.52
2018-10-17T00:10:48.696Z,15.52
2018-10-17T00:13:17.745Z,15.61
2018-10-17T00:15:46.180Z,15.51
2018-10-17T00:18:14.530Z,15.51
2018-10-17T00:20:42.857Z,15.48
2018-10-17T00:23:11.274Z,15.47
2018-10-17T00:25:42.700Z,15.42
2018-10-17T00:28:11.071Z,15.42
2018-10-17T00:30:40.460Z,15.38
2018-10-17T00:33:08.824Z,15.30
2018-10-17T00:35:37.192Z,15.25
2018-10-17T00:38:06.764Z,15.28
2018-10-17T00:40:35.201Z,15.32
2018-10-17T00:43:03.545Z,15.31
2018-10-17T00:45:31.873Z,15.27
2018-10-17T00:48:00.259Z,15.16
2018-10-17T00:50:28.587Z,15.14
2018-10-17T00:52:57.053Z,15.18
2018-10-17T00:55:25.307Z,15.20
2018-10-17T00:57:53.653Z,15.20
2018-10-17T01:00:22.213Z,15.14
2018-10-17T01:02:50.574Z,15.06
2018-10-17T01:05:19.911Z,15.06
2018-10-17T01:07:48.313Z,15.04
2018-10-17T01:10:16.708Z,15.02
2018-10-17T01:12:45.100Z,14.93
2018-10-17T01:15:13.516Z,14.98
2018-10-17T01:17:42.363Z,14.93
2018-10-17T01:20:10.825Z,14.89
2018-10-17T01:22:39.445Z,14.88
2018-10-17T01:25:07.982Z,14.87
2018-10-17T01:27:36.321Z,14.80
2018-10-17T01:30:05.310Z,14.81
2018-10-17T01:32:33.701Z,14.80
2018-10-17T01:35:02.147Z,14.86
2018-10-17T01:37:31.769Z,14.79
2018-10-17T01:40:00.126Z,14.82
2018-10-17T01:42:28.501Z,14.83
2018-10-17T01:44:57.053Z,14.85
2018-10-17T01:47:25.418Z,14.79
2018-10-17T01:49:54.858Z,14.79
2018-10-17T01:52:23.253Z,14.82
2018-10-17T01:54:51.621Z,14.83
2018-10-17T01:57:19.972Z,14.80
2018-10-17T01:59:49.365Z,14.70
2018-10-17T02:02:17.752Z,14.76
2018-10-17T02:04:46.113Z,14.83
2018-10-17T02:07:14.707Z,14.85
2018-10-17T02:09:43.001Z,14.84
2018-10-17T02:12:11.407Z,14.78
2018-10-17T02:14:39.822Z,14.85
2018-10-17T02:17:08.275Z,14.79
2018-10-17T02:19:36.624Z,14.95
2018-10-17T02:22:05.096Z,14.96
2018-10-17T02:24:33.485Z,15.03
2018-10-17T02:27:02.888Z,15.14
2018-10-17T02:29:31.264Z,15.18
2018-10-17T02:31:59.626Z,15.25
2018-10-17T02:34:27.957Z,15.32
2018-10-17T02:36:56.308Z,15.30
2018-10-17T02:39:24.696Z,15.35
2018-10-17T02:41:53.028Z,15.38
2018-10-17T02:44:22.476Z,15.34
2018-10-17T02:46:50.821Z,15.35
2018-10-17T02:49:20.239Z,15.43
2018-10-17T02:51:48.601Z,15.41
2018-10-17T02:54:16.961Z,15.39
2018-10-17T02:56:45.286Z,15.45
2018-10-17T02:59:13.687Z,15.44
2018-10-17T03:01:42.092Z,15.44
2018-10-17T03:04:14.905Z,15.46
2018-10-17T03:06:43.250Z,15.53
2018-10-17T03:09:11.636Z,15.41
2018-10-17T03:11:39.989Z,15.44
2018-10-17T03:14:08.367Z,15.54
2018-10-17T03:16:36.813Z,15.59
2018-10-17T03:19:05.508Z,15.57
2018-10-17T03:21:33.842Z,15.61
2018-10-17T03:24:02.180Z,15.50
2018-10-17T03:26:30.504Z,15.54
2018-10-17T03:28:58.913Z,15.62
2018-10-17T03:31:27.376Z,15.58
2018-10-17T03:33:55.592Z,15.56
2018-10-17T03:36:23.930Z,15.59
2018-10-17T03:38:54.398Z,15.54
2018-10-17T03:41:23.856Z,15.65
2018-10-17T03:43:52.250Z,15.67
2018-10-17T03:46:20.623Z,15.69
2018-10-17T03:48:49.012Z,15.72
2018-10-17T03:51:18.586Z,15.69
2018-10-17T03:53:46.939Z,16.09
2018-10-17T03:56:15.285Z,15.82
2018-10-17T03:58:43.636Z,15.73
2018-10-17T04:01:12.059Z,15.76
2018-10-17T04:03:40.326Z,15.73
2018-10-17T04:06:08.693Z,15.76
2018-10-17T04:08:37.064Z,15.74
2018-10-17T04:11:05.833Z,15.72
2018-10-17T04:13:34.110Z,15.70
2018-10-17T04:16:02.479Z,15.68
2018-10-17T04:18:31.932Z,15.71
2018-10-17T04:21:00.305Z,15.74
2018-10-17T04:23:28.690Z,15.70
2018-10-17T04:25:57.082Z,15.67
2018-10-17T04:28:31.424Z,15.65
2018-10-17T04:30:59.790Z,15.52
2018-10-17T04:33:28.157Z,15.46
2018-10-17T04:35:56.525Z,15.42
2018-10-17T04:38:24.901Z,15.40
2018-10-17T04:40:53.292Z,15.43
2018-10-17T04:43:24.488Z,15.43
2018-10-17T04:45:55.120Z,15.44
2018-10-17T04:48:24.529Z,15.47
2018-10-17T04:50:54.134Z,15.45
2018-10-17T04:53:22.505Z,15.41
2018-10-17T04:59:02.240Z,15.37
2018-10-17T05:01:30.502Z,15.37
2018-10-17T05:03:58.877Z,15.40
2018-10-17T05:06:27.237Z,15.36
2018-10-17T05:08:55.625Z,15.38
2018-10-17T05:12:49.501Z,15.33
2018-10-17T05:15:17.896Z,15.35
2018-10-17T05:17:46.223Z,15.34
2018-10-17T05:20:14.561Z,15.37
2018-10-17T05:22:42.896Z,15.33
2018-10-17T05:25:11.240Z,15.24
2018-10-17T05:27:39.548Z,15.36
2018-10-17T05:30:08.024Z,15.33
2018-10-17T05:32:36.348Z,15.40
2018-10-17T05:35:05.175Z,15.43
2018-10-17T05:37:33.586Z,15.38
2018-10-17T05:40:01.857Z,15.38
2018-10-17T05:42:30.245Z,15.36
2018-10-17T05:44:58.646Z,15.40
2018-10-17T05:47:27.000Z,15.38
2018-10-17T05:49:55.348Z,15.39
2018-10-17T05:52:23.700Z,15.46
2018-10-17T05:54:52.071Z,15.46
2018-10-17T05:57:20.445Z,15.45
2018-10-17T05:59:48.819Z,15.55
2018-10-17T06:02:22.461Z,15.54
2018-10-17T06:04:51.013Z,15.69
2018-10-17T06:07:19.375Z,15.71
2018-10-17T06:09:47.864Z,15.74
2018-10-17T06:12:17.439Z,15.86
2018-10-17T06:14:45.768Z,15.97
2018-10-17T06:17:17.501Z,16.00
2018-10-17T06:19:46.985Z,16.03
2018-10-17T06:22:15.367Z,16.09
2018-10-17T06:24:43.732Z,16.13
2018-10-17T06:27:12.248Z,16.16
2018-10-17T06:29:40.765Z,16.20
2018-10-17T06:32:09.160Z,16.25
2018-10-17T06:34:37.897Z,16.29
2018-10-17T06:37:07.657Z,16.35
2018-10-17T06:39:36.724Z,16.34
2018-10-17T06:42:05.696Z,16.34
2018-10-17T06:44:34.042Z,16.34
2018-10-17T06:47:02.437Z,16.43
2018-10-17T06:49:30.771Z,16.47
2018-10-17T06:51:59.137Z,16.51
2018-10-17T06:54:27.727Z,16.58
2018-10-17T06:56:56.041Z,16.65
2018-10-17T06:59:24.419Z,16.70
2018-10-17T07:01:53.223Z,16.78
2018-10-17T07:04:21.602Z,16.92
2018-10-17T07:06:50.085Z,17.00
2018-10-17T07:09:18.452Z,17.03
2018-10-17T07:11:46.852Z,17.18
2018-10-17T07:14:15.197Z,17.51
2018-10-17T07:16:43.636Z,17.73
2018-10-17T07:19:13.189Z,17.85
2018-10-17T07:21:41.445Z,17.80
2018-10-17T07:24:10.809Z,17.92
2018-10-17T07:26:39.184Z,18.05
2018-10-17T07:29:07.642Z,18.18
2018-10-17T07:31:36.998Z,18.29
2018-10-17T07:34:05.407Z,18.39
2018-10-17T07:36:33.859Z,18.46
2018-10-17T07:39:03.725Z,18.51
2018-10-17T07:41:32.130Z,18.63
2018-10-17T07:44:00.484Z,18.79
2018-10-17T07:46:29.460Z,19.03
2018-10-17T07:48:58.921Z,19.07
2018-10-17T07:51:28.309Z,19.23
2018-10-17T07:53:57.775Z,19.33
2018-10-17T07:56:26.161Z,19.55
2018-10-17T07:58:56.540Z,19.62
2018-10-17T08:01:25.905Z,19.76
2018-10-17T08:03:58.624Z,19.73
2018-10-17T08:06:27.437Z,19.79
2018-10-17T08:08:56.781Z,19.93
2018-10-17T08:11:26.194Z,20.08
2018-10-17T08:13:54.577Z,20.08
2018-10-17T08:16:22.921Z,20.30
2018-10-17T08:18:51.283Z,20.38
2018-10-17T08:21:21.030Z,20.43
2018-10-17T08:23:49.399Z,20.36
2018-10-17T08:26:17.754Z,20.22
2018-10-17T08:28:47.195Z,20.22
2018-10-17T08:31:15.569Z,20.41
2018-10-17T08:33:43.932Z,20.21
2018-10-17T08:36:12.631Z,20.39
2018-10-17T08:38:40.685Z,19.95
2018-10-17T08:41:09.144Z,20.30
2018-10-17T08:43:39.313Z,20.65
2018-10-17T08:46:07.708Z,20.90
2018-10-17T08:48:38.125Z,20.80
2018-10-17T08:51:06.535Z,20.78
2018-10-17T08:53:34.877Z,20.97
2018-10-17T08:56:03.254Z,20.54
2018-10-17T08:58:31.609Z,20.73
2018-10-17T09:00:59.981Z,20.86
2018-10-17T09:03:28.328Z,20.94
2018-10-17T09:05:57.719Z,21.27
2018-10-17T09:08:26.114Z,20.92
2018-10-17T09:10:54.474Z,21.26
2018-10-17T09:13:22.851Z,21.67
2018-10-17T09:15:52.273Z,21.92
2018-10-17T09:18:20.657Z,21.85
2018-10-17T09:20:49.288Z,22.21
2018-10-17T09:23:17.293Z,22.05
2018-10-17T09:25:45.777Z,22.36
2018-10-17T09:28:15.108Z,22.39
2018-10-17T09:30:43.537Z,22.46
2018-10-17T09:33:11.976Z,22.68
2018-10-17T09:35:40.313Z,22.68
2018-10-17T09:38:08.691Z,22.46
2018-10-17T09:40:37.005Z,22.19
2018-10-17T09:43:05.621Z,22.32
2018-10-17T09:45:33.967Z,22.14
2018-10-17T09:48:02.375Z,22.14
2018-10-17T09:50:30.736Z,22.06
2018-10-17T09:52:59.169Z,22.04
2018-10-17T09:55:27.517Z,21.74
2018-10-17T09:57:55.917Z,21.94
2018-10-17T10:00:29.543Z,21.98
2018-10-17T10:02:59.605Z,22.00
2018-10-17T10:05:27.982Z,22.25
2018-10-17T10:07:56.352Z,22.19
2018-10-17T10:10:24.689Z,21.86
2018-10-17T10:12:53.034Z,21.96
2018-10-17T10:15:21.523Z,22.25
2018-10-17T10:17:49.829Z,22.53
2018-10-17T10:20:18.197Z,22.11
2018-10-17T10:24:12.291Z,22.37
2018-10-17T10:26:40.638Z,22.61
2018-10-17T10:29:09.090Z,22.67
2018-10-17T10:31:37.477Z,22.35
2018-10-17T10:34:06.061Z,22.59
2018-10-17T10:36:34.393Z,22.56
2018-10-17T10:39:02.888Z,22.59
2018-10-17T10:41:32.297Z,22.53
2018-10-17T10:44:00.807Z,22.45
2018-10-17T10:46:30.198Z,22.61
2018-10-17T10:48:58.727Z,22.52
2018-10-17T10:51:27.259Z,22.57
2018-10-17T10:53:55.710Z,22.60
2018-10-17T10:56:24.093Z,22.59
2018-10-17T10:58:52.710Z,22.42
2018-10-17T11:01:21.397Z,22.44
2018-10-17T11:03:49.734Z,22.65
2018-10-17T11:06:18.198Z,22.90
2018-10-17T11:08:46.809Z,22.87
2018-10-17T11:11:15.329Z,22.58
2018-10-17T11:13:44.868Z,22.82
2018-10-17T11:16:13.229Z,22.92
2018-10-17T11:18:41.667Z,23.11
2018-10-17T11:21:10.054Z,23.29
2018-10-17T11:23:38.524Z,23.32
2018-10-17T11:26:07.081Z,22.95
2018-10-17T11:28:35.449Z,22.98
2018-10-17T11:31:03.823Z,23.01
2018-10-17T11:33:32.193Z,23.16
2018-10-17T11:36:00.553Z,23.21
2018-10-17T11:38:28.897Z,23.27
2018-10-17T11:40:57.288Z,23.01
2018-10-17T11:43:25.645Z,23.44
2018-10-17T11:45:53.996Z,23.47
2018-10-17T11:48:22.364Z,23.22
2018-10-17T11:50:50.720Z,23.26
2018-10-17T11:53:19.093Z,23.54
2018-10-17T11:55:47.458Z,23.44
2018-10-17T11:58:15.821Z,23.31
2018-10-17T12:00:44.165Z,23.28
2018-10-17T12:03:12.640Z,23.27
2018-10-17T12:05:41.279Z,23.35
2018-10-17T12:08:09.331Z,23.70
2018-10-17T12:10:37.698Z,23.44
2018-10-17T12:13:09.102Z,23.36
2018-10-17T12:15:42.046Z,23.56
2018-10-17T12:18:10.720Z,23.77
2018-10-17T12:20:38.972Z,23.98
2018-10-17T12:23:07.356Z,23.74
2018-10-17T12:25:35.716Z,23.93
2018-10-17T12:28:04.214Z,23.97
2018-10-17T12:30:32.493Z,24.07
2018-10-17T12:33:00.884Z,23.89
2018-10-17T12:35:29.268Z,23.87
2018-10-17T12:37:57.600Z,23.97
2018-10-17T12:40:26.081Z,24.00
2018-10-17T12:50:02.468Z,24.10
2018-10-17T12:52:31.376Z,24.27
2018-10-17T12:54:59.655Z,24.57
2018-10-17T12:57:28.212Z,24.32
2018-10-17T12:59:57.780Z,24.42
2018-10-17T13:02:26.128Z,24.12
2018-10-17T13:04:54.518Z,24.49
2018-10-17T13:07:23.000Z,24.74
2018-10-17T13:09:51.349Z,24.39
2018-10-17T13:12:19.752Z,24.64
2018-10-17T13:14:48.203Z,25.26
2018-10-17T13:17:16.599Z,25.50
2018-10-17T13:19:45.188Z,25.48
2018-10-17T13:22:13.504Z,25.41
2018-10-17T13:24:41.994Z,25.29
2018-10-17T13:27:11.312Z,24.88
2018-10-17T13:29:39.645Z,24.71
2018-10-17T13:32:07.995Z,24.71
2018-10-17T13:34:36.647Z,24.83
2018-10-17T13:37:05.394Z,24.72
2018-10-17T13:39:33.695Z,24.78
2018-10-17T13:42:02.197Z,24.96
2018-10-17T13:44:30.453Z,24.95
2018-10-17T13:46:58.925Z,24.89
2018-10-17T13:49:27.414Z,24.87
2018-10-17T13:51:55.760Z,24.91
2018-10-17T13:54:24.084Z,24.50
2018-10-17T13:56:52.432Z,24.68
2018-10-17T13:59:21.052Z,24.55
2018-10-17T14:01:51.409Z,24.64
2018-10-17T14:04:19.809Z,24.67
2018-10-17T14:06:48.140Z,24.82
2018-10-17T14:09:16.543Z,24.73
2018-10-17T14:11:44.861Z,24.77
2018-10-17T14:14:13.202Z,24.57
2018-10-17T14:16:41.549Z,24.45
2018-10-17T14:19:09.930Z,24.63
2018-10-17T14:21:39.318Z,24.76
2018-10-17T14:24:07.723Z,24.87
2018-10-17T14:26:36.070Z,24.83
2018-10-17T14:29:04.454Z,24.73
2018-10-17T14:31:32.841Z,24.72
2018-10-17T14:34:01.218Z,24.73
2018-10-17T14:36:29.694Z,24.63
2018-10-17T14:38:58.054Z,24.76
2018-10-17T14:41:26.469Z,24.77
2018-10-17T14:43:54.809Z,24.54
2018-10-17T14:46:23.153Z,24.22
2018-10-17T14:48:51.525Z,24.21
2018-10-17T14:54:10.550Z,24.23
2018-10-17T14:56:38.834Z,24.12
2018-10-17T14:59:07.148Z,24.15
2018-10-17T15:01:35.612Z,24.07
2018-10-17T15:04:03.995Z,23.98
2018-10-17T15:06:32.453Z,23.72
2018-10-17T15:09:00.789Z,23.53
2018-10-17T15:11:29.104Z,23.37
2018-10-17T15:13:57.362Z,23.21
2018-10-17T15:16:25.670Z,23.15
2018-10-17T15:18:53.961Z,23.04
2018-10-17T15:21:22.250Z,22.99
2018-10-17T15:23:50.552Z,22.87
2018-10-17T15:26:18.897Z,22.75
2018-10-17T15:28:47.194Z,22.67
2018-10-17T15:31:15.495Z,22.54
2018-10-17T15:33:43.782Z,22.40
2018-10-17T15:36:12.092Z,22.20
2018-10-17T15:38:40.362Z,22.02
2018-10-17T15:41:08.646Z,21.88
2018-10-17T15:43:36.975Z,21.72
2018-10-17T15:46:05.906Z,21.61
2018-10-17T15:48:34.272Z,21.52
2018-10-17T15:51:02.580Z,21.42
2018-10-17T15:53:30.950Z,21.31
2018-10-17T15:55:59.185Z,21.22
2018-10-17T15:58:27.494Z,21.12
2018-10-17T16:00:55.857Z,21.22
2018-10-17T16:03:24.094Z,21.11
2018-10-17T16:05:52.467Z,21.24
2018-10-17T16:08:20.811Z,21.16
2018-10-17T16:10:49.087Z,21.04
2018-10-17T16:13:17.370Z,20.89
2018-10-17T16:15:45.657Z,20.96
2018-10-17T16:18:14.055Z,20.88
2018-10-17T16:20:43.322Z,20.87
2018-10-17T16:23:11.666Z,20.82
2018-10-17T16:25:39.930Z,20.76
2018-10-17T16:28:08.234Z,20.73
2018-10-17T16:30:36.681Z,20.58
2018-10-17T16:33:04.928Z,20.54
2018-10-17T16:35:33.233Z,20.43
2018-10-17T16:38:01.697Z,20.38
2018-10-17T16:40:29.954Z,20.62
2018-10-17T16:42:58.247Z,20.24
2018-10-17T16:45:26.526Z,20.16
2018-10-17T16:47:54.907Z,20.17
2018-10-17T16:50:23.326Z,20.01
2018-10-17T16:52:51.569Z,19.89
2018-10-17T16:55:21.970Z,19.90
2018-10-17T16:57:51.191Z,19.65
2018-10-17T17:00:19.626Z,19.76
2018-10-17T17:02:47.897Z,19.64
2018-10-17T17:05:16.243Z,19.41
2018-10-17T17:07:44.731Z,19.46
2018-10-17T17:10:14.010Z,19.36
2018-10-17T17:12:42.359Z,19.19
2018-10-17T17:15:11.049Z,19.09
2018-10-17T17:17:39.311Z,19.11
2018-10-17T17:20:09.342Z,19.01
2018-10-17T17:22:37.974Z,18.87
2018-10-17T17:25:06.737Z,18.86
2018-10-17T17:27:35.110Z,18.73
2018-10-17T17:30:03.518Z,18.77
2018-10-17T17:32:31.778Z,18.68
2018-10-17T17:35:00.110Z,18.73
2018-10-17T17:37:28.406Z,18.59
2018-10-17T17:39:56.726Z,18.57
2018-10-17T17:42:25.043Z,18.52
2018-10-17T17:44:53.359Z,18.48
2018-10-17T17:47:21.685Z,18.41
2018-10-17T17:49:49.995Z,18.29
2018-10-17T17:52:18.342Z,18.19
2018-10-17T17:54:46.736Z,18.27
2018-10-17T17:57:15.078Z,18.30
2018-10-17T17:59:43.386Z,18.19
2018-10-17T18:02:11.682Z,18.06
2018-10-17T18:04:39.990Z,17.91
2018-10-17T18:07:08.318Z,17.98
2018-10-17T18:09:36.623Z,17.88
2018-10-17T18:12:05.338Z,17.81
2018-10-17T18:14:33.642Z,17.83
2018-10-17T18:17:01.998Z,17.74
2018-10-17T18:19:30.302Z,17.70
2018-10-17T18:21:58.626Z,17.67
2018-10-17T18:24:26.913Z,17.59
2018-10-17T18:26:55.250Z,17.61
2018-10-17T18:29:23.545Z,17.54
2018-10-17T18:31:51.847Z,17.50
2018-10-17T18:34:20.326Z,17.43
2018-10-17T18:36:49.598Z,17.29
2018-10-17T18:39:17.902Z,17.14
2018-10-17T18:41:46.218Z,17.16
2018-10-17T18:44:14.550Z,17.19
2018-10-17T18:46:42.883Z,17.13
2018-10-17T18:49:11.197Z,17.03
2018-10-17T18:51:41.586Z,17.07
2018-10-17T18:54:10.802Z,17.01
2018-10-17T18:56:40.199Z,16.92
2018-10-17T18:59:08.502Z,16.93
2018-10-17T19:01:36.824Z,16.87
2018-10-17T19:04:05.606Z,16.79
2018-10-17T19:06:33.898Z,16.73
2018-10-17T19:09:02.267Z,16.64
2018-10-17T19:11:30.546Z,16.66
2018-10-17T19:13:59.014Z,16.61
2018-10-17T19:16:28.298Z,16.75
2018-10-17T19:18:56.583Z,16.63
2018-10-17T19:21:25.923Z,16.56
2018-10-17T19:23:54.223Z,16.55
2018-10-17T19:26:22.530Z,16.55
2018-10-17T19:28:50.963Z,16.62
2018-10-17T19:31:19.269Z,16.50
2018-10-17T19:33:47.598Z,16.55
2018-10-17T19:36:15.941Z,16.58
2018-10-17T19:38:44.234Z,16.36
2018-10-17T19:41:12.588Z,16.33
2018-10-17T19:43:40.882Z,16.38
2018-10-17T19:46:10.217Z,16.41
2018-10-17T19:48:38.631Z,16.32
2018-10-17T19:51:07.023Z,16.28
2018-10-17T19:53:35.238Z,16.28
2018-10-17T19:56:03.640Z,16.33
2018-10-17T19:58:32.002Z,16.32
2018-10-17T20:01:00.290Z,15.95
2018-10-17T20:03:29.634Z,15.97
2018-10-17T20:05:57.910Z,15.90
2018-10-17T20:08:26.221Z,15.87
2018-10-17T20:10:54.542Z,15.69
2018-10-17T20:13:22.846Z,15.77
2018-10-17T20:15:51.210Z,15.74
2018-10-17T20:18:19.546Z,15.81
2018-10-17T20:20:48.934Z,15.79
2018-10-17T20:23:19.263Z,15.67
2018-10-17T20:25:47.614Z,15.62
2018-10-17T20:28:15.938Z,15.66
2018-10-17T20:30:44.284Z,15.53
2018-10-17T20:33:12.651Z,15.45
2018-10-17T20:35:40.918Z,15.47
2018-10-17T20:38:09.200Z,15.43
2018-10-17T20:40:37.613Z,15.46
2018-10-17T20:43:05.935Z,15.22
2018-10-17T20:45:34.245Z,15.19
2018-10-17T20:48:02.638Z,15.13
2018-10-17T20:50:30.913Z,15.25
2018-10-17T20:52:59.198Z,15.23
2018-10-17T20:55:27.515Z,15.12
2018-10-17T20:57:55.855Z,15.10
2018-10-17T21:00:24.113Z,15.10
2018-10-17T21:02:52.397Z,15.10
2018-10-17T21:05:20.705Z,15.05
2018-10-17T21:07:49.006Z,15.19
2018-10-17T21:10:17.278Z,15.35
2018-10-17T21:12:47.648Z,15.07
2018-10-17T21:15:17.038Z,15.17
2018-10-17T21:17:45.386Z,15.12
2018-10-17T21:20:13.779Z,15.18
2018-10-17T21:22:42.059Z,15.19
2018-10-17T21:25:10.355Z,15.31
2018-10-17T21:27:38.722Z,15.36
2018-10-17T21:30:08.251Z,15.43
2018-10-17T21:32:36.578Z,15.56
2018-10-17T21:35:06.538Z,15.66
2018-10-17T21:37:35.246Z,15.76
2018-10-17T21:40:03.717Z,15.66
2018-10-17T21:42:32.083Z,15.59
2018-10-17T21:45:00.474Z,15.61
2018-10-17T21:47:28.886Z,15.63
2018-10-17T21:49:57.143Z,15.60
2018-10-17T21:52:25.565Z,15.54
2018-10-17T21:54:53.933Z,15.58
2018-10-17T21:57:22.226Z,15.55
2018-10-17T21:59:50.558Z,15.43
2018-10-17T22:02:18.890Z,15.31
2018-10-17T22:04:47.184Z,15.17
2018-10-17T22:07:15.522Z,15.26
2018-10-17T22:09:43.851Z,15.21
2018-10-17T22:12:12.110Z,15.19
2018-10-17T22:14:40.570Z,14.94
2018-10-17T22:17:08.853Z,14.84
2018-10-17T22:19:38.120Z,14.79
2018-10-17T22:22:07.070Z,14.89
2018-10-17T22:24:35.366Z,14.87
2018-10-17T22:27:03.881Z,14.78
2018-10-17T22:29:32.200Z,14.79
2018-10-17T22:32:00.512Z,14.78
2018-10-17T22:34:28.819Z,14.83
2018-10-17T22:36:57.099Z,14.74
2018-10-17T22:39:26.089Z,14.85
2018-10-17T22:41:54.434Z,14.88
2018-10-17T22:44:23.950Z,14.92
2018-10-17T22:46:52.245Z,14.93
2018-10-17T22:49:20.594Z,14.81
2018-10-17T22:51:49.944Z,14.84
2018-10-17T22:54:18.252Z,14.84
2018-10-17T22:56:46.538Z,14.82
2018-10-17T22:59:14.830Z,14.90
2018-10-17T23:01:43.145Z,14.97
2018-10-17T23:04:12.457Z,14.96
2018-10-17T23:06:40.748Z,14.92
2018-10-17T23:09:13.552Z,14.83
2018-10-17T23:11:42.527Z,14.93
2018-10-17T23:14:11.212Z,14.88
2018-10-17T23:16:40.701Z,14.89
2018-10-17T23:19:10.011Z,14.91
2018-10-17T23:21:38.298Z,14.79
2018-10-17T23:24:06.661Z,14.79
2018-10-17T23:26:36.051Z,14.84
2018-10-17T23:29:04.368Z,14.70
2018-10-17T23:31:32.657Z,14.68
2018-10-17T23:34:00.966Z,14.60
2018-10-17T23:36:29.261Z,14.62
2018-10-17T23:38:57.562Z,14.58
2018-10-17T23:41:25.932Z,14.52
2018-10-17T23:43:54.293Z,14.61
2018-10-17T23:46:22.654Z,14.61
2018-10-17T23:48:50.964Z,14.59
2018-10-17T23:51:19.241Z,14.49
2018-10-17T23:53:47.555Z,14.45
2018-10-17T23:56:16.038Z,14.41
2018-10-17T23:58:44.349Z,14.47
